createdAt,value
2022-08-05T00:02:11.399Z,19.13
2022-08-05T00:04:46.348Z,19.11
2022-08-05T00:08:00.026Z,19.06
2022-08-05T00:10:27.101Z,19.02
2022-08-05T00:13:01.325Z,18.99
2022-08-05T00:15:58.012Z,18.95
2022-08-05T00:18:28.024Z,18.93
2022-08-05T00:21:01.322Z,18.91
2022-08-05T00:23:45.956Z,18.87
2022-08-05T00:26:22.556Z,18.82
2022-08-05T00:28:55.626Z,18.78
2022-08-05T00:31:53.254Z,18.74
2022-08-05T00:34:55.263Z,18.70
2022-08-05T00:37:15.338Z,18.64
2022-08-05T00:39:58.325Z,18.58
2022-08-05T00:42:37.909Z,18.54
2022-08-05T00:45:13.587Z,18.50
2022-08-05T00:47:57.128Z,18.43
2022-08-05T00:50:38.039Z,18.37
2022-08-05T00:54:00.110Z,18.32
2022-08-05T00:56:07.819Z,18.27
2022-08-05T00:58:42.491Z,18.24
2022-08-05T01:01:42.098Z,18.18
2022-08-05T01:04:13.886Z,18.14
2022-08-05T01:06:48.979Z,18.10
2022-08-05T01:09:24.984Z,18.07
2022-08-05T01:12:17.973Z,18.04
2022-08-05T01:14:56.669Z,18.01
2022-08-05T01:17:39.905Z,17.98
2022-08-05T01:20:26.974Z,17.93
2022-08-05T01:23:14.267Z,17.89
2022-08-05T01:26:08.402Z,17.87
2022-08-05T01:28:47.438Z,17.85
2022-08-05T01:31:31.081Z,17.84
2022-08-05T01:34:06.948Z,17.83
2022-08-05T01:36:47.647Z,17.81
2022-08-05T01:39:46.703Z,17.79
2022-08-05T01:42:17.646Z,17.76
2022-08-05T01:44:54.109Z,17.73
2022-08-05T01:47:38.802Z,17.71
2022-08-05T01:50:16.009Z,17.69
2022-08-05T01:52:50.686Z,17.67
2022-08-05T01:55:24.576Z,17.65
2022-08-05T01:58:09.266Z,17.61
2022-08-05T02:00:52.145Z,17.58
2022-08-05T02:03:31.911Z,17.55
2022-08-05T02:06:23.972Z,17.52
2022-08-05T02:09:03.755Z,17.49
2022-08-05T02:11:47.868Z,17.46
2022-08-05T02:14:32.251Z,17.42
2022-08-05T02:17:08.492Z,17.38
2022-08-05T02:20:03.720Z,17.34
2022-08-05T02:22:40.857Z,17.32
2022-08-05T02:25:18.418Z,17.30
2022-08-05T02:27:58.250Z,17.30
2022-08-05T02:30:37.285Z,17.28
2022-08-05T02:33:36.108Z,17.23
2022-08-05T02:36:15.642Z,17.18
2022-08-05T02:38:53.623Z,17.16
2022-08-05T02:41:42.964Z,17.14
2022-08-05T02:44:21.874Z,17.12
2022-08-05T02:47:00.379Z,17.11
2022-08-05T02:49:37.969Z,17.08
2022-08-05T02:52:29.952Z,17.06
2022-08-05T02:55:10.744Z,17.01
2022-08-05T02:58:11.378Z,17.00
2022-08-05T03:00:41.162Z,16.97
2022-08-05T03:03:20.992Z,16.93
2022-08-05T03:06:57.244Z,16.90
2022-08-05T03:08:52.165Z,16.87
2022-08-05T03:11:57.378Z,16.87
2022-08-05T03:14:17.910Z,16.87
2022-08-05T03:16:53.505Z,16.87
2022-08-05T03:19:34.579Z,16.88
2022-08-05T03:22:16.008Z,16.86
2022-08-05T03:24:53.388Z,16.84
2022-08-05T03:27:29.824Z,16.78
2022-08-05T03:30:14.004Z,16.76
2022-08-05T03:32:47.241Z,16.74
2022-08-05T03:35:20.228Z,16.74
2022-08-05T03:37:53.780Z,16.76
2022-08-05T03:40:31.805Z,16.79
2022-08-05T03:43:59.052Z,16.84
2022-08-05T03:46:00.501Z,16.95
2022-08-05T03:48:35.382Z,17.06
2022-08-05T03:52:39.331Z,17.12
2022-08-05T03:56:03.888Z,17.18
2022-08-05T03:57:16.619Z,17.25
2022-08-05T03:59:56.751Z,17.30
2022-08-05T04:02:38.344Z,17.37
2022-08-05T04:05:13.301Z,17.43
2022-08-05T04:07:58.343Z,17.49
2022-08-05T04:10:37.683Z,17.56
2022-08-05T04:13:11.540Z,17.62
2022-08-05T04:16:03.281Z,17.69
2022-08-05T04:18:38.100Z,17.79
2022-08-05T04:21:12.695Z,17.89
2022-08-05T04:24:09.121Z,18.00
2022-08-05T04:26:52.347Z,18.13
2022-08-05T04:29:25.057Z,18.25
2022-08-05T04:32:00.295Z,18.37
2022-08-05T04:34:36.621Z,18.49
2022-08-05T04:37:15.999Z,18.60
2022-08-05T04:39:52.831Z,18.72
2022-08-05T04:42:25.574Z,18.86
2022-08-05T04:44:58.931Z,18.98
2022-08-05T04:47:38.590Z,19.10
2022-08-05T04:50:15.487Z,19.22
2022-08-05T04:53:10.941Z,19.38
2022-08-05T04:56:15.147Z,19.51
2022-08-05T04:58:37.039Z,19.66
2022-08-05T05:01:10.255Z,19.81
2022-08-05T05:03:44.127Z,19.93
2022-08-05T05:06:39.694Z,20.07
2022-08-05T05:09:17.529Z,20.22
2022-08-05T05:11:55.473Z,20.34
2022-08-05T05:14:31.865Z,20.49
2022-08-05T05:17:07.346Z,20.63
2022-08-05T05:19:44.190Z,20.79
2022-08-05T05:22:23.740Z,20.90
2022-08-05T05:25:15.992Z,21.02
2022-08-05T05:27:54.042Z,21.15
2022-08-05T05:30:30.774Z,21.26
2022-08-05T05:33:16.591Z,21.37
2022-08-05T05:35:49.790Z,21.47
2022-08-05T05:38:27.490Z,21.56
2022-08-05T05:41:00.418Z,21.64
2022-08-05T05:43:56.551Z,21.71
2022-08-05T05:46:27.321Z,21.79
2022-08-05T05:49:00.099Z,21.87
2022-08-05T05:51:49.711Z,21.99
2022-08-05T05:54:22.502Z,22.07
2022-08-05T05:57:23.382Z,22.16
2022-08-05T05:59:56.192Z,22.26
2022-08-05T06:02:37.394Z,22.36
2022-08-05T06:05:16.719Z,22.47
2022-08-05T06:07:57.854Z,22.57
2022-08-05T06:10:49.110Z,22.65
2022-08-05T06:13:28.549Z,22.76
2022-08-05T06:16:38.358Z,22.90
2022-08-05T06:19:37.707Z,23.05
2022-08-05T06:26:12.620Z,23.43
2022-08-05T06:28:31.319Z,23.60
2022-08-05T06:31:11.120Z,23.70
2022-08-05T06:34:26.534Z,23.79
2022-08-05T06:40:32.381Z,24.01
2022-08-05T06:43:05.235Z,24.13
2022-08-05T06:46:06.785Z,24.26
2022-08-05T06:48:55.841Z,24.38
2022-08-05T06:51:30.765Z,24.48
2022-08-05T06:54:05.031Z,24.58
2022-08-05T06:56:37.646Z,24.67
2022-08-05T06:59:12.774Z,24.77
2022-08-05T07:01:48.052Z,24.85
2022-08-05T07:04:25.448Z,24.93
2022-08-05T07:06:58.522Z,25.01
2022-08-05T07:09:32.527Z,25.11
2022-08-05T07:12:34.658Z,25.21
2022-08-05T07:16:00.885Z,25.32
2022-08-05T07:18:30.098Z,25.48
2022-08-05T07:21:05.775Z,25.60
2022-08-05T07:23:49.126Z,25.72
2022-08-05T07:26:24.916Z,25.86
2022-08-05T07:28:59.844Z,25.98
2022-08-05T07:31:53.908Z,26.11
2022-08-05T07:34:28.537Z,26.23
2022-08-05T07:37:01.446Z,26.33
2022-08-05T07:40:26.705Z,26.39
2022-08-05T07:42:33.549Z,26.54
2022-08-05T07:45:11.949Z,26.65
2022-08-05T07:47:45.347Z,26.73
2022-08-05T07:50:18.050Z,26.82
2022-08-05T07:52:54.021Z,26.92
2022-08-05T07:56:05.831Z,27.02
2022-08-05T07:58:54.946Z,27.15
2022-08-05T08:01:14.646Z,27.27
2022-08-05T08:03:48.780Z,27.32
2022-08-05T08:06:28.249Z,27.42
2022-08-05T08:09:01.984Z,27.55
2022-08-05T08:11:47.054Z,27.64
2022-08-05T08:14:21.445Z,27.71
2022-08-05T08:16:54.295Z,27.79
2022-08-05T08:20:21.241Z,27.90
2022-08-05T08:22:20.415Z,27.99
2022-08-05T08:24:55.719Z,28.10
2022-08-05T08:27:45.246Z,28.21
2022-08-05T08:30:34.145Z,28.29
2022-08-05T08:33:14.472Z,28.40
2022-08-05T08:35:52.674Z,28.46
2022-08-05T08:38:35.718Z,28.56
2022-08-05T08:41:14.159Z,28.67
2022-08-05T08:45:20.484Z,28.81
2022-08-05T08:46:41.208Z,28.89
2022-08-05T08:50:22.915Z,28.91
2022-08-05T08:52:16.206Z,28.99
2022-08-05T08:54:48.358Z,29.04
2022-08-05T08:57:20.836Z,29.12
2022-08-05T08:59:56.121Z,29.20
2022-08-05T09:02:28.845Z,29.29
2022-08-05T09:05:17.520Z,29.37
2022-08-05T09:07:57.579Z,29.47
2022-08-05T09:10:32.730Z,29.53
2022-08-05T09:13:06.664Z,29.60
2022-08-05T09:15:41.791Z,29.69
2022-08-05T09:18:16.201Z,29.74
2022-08-05T09:20:51.560Z,29.78
2022-08-05T09:23:23.648Z,29.80
2022-08-05T09:26:11.568Z,29.82
2022-08-05T09:28:53.737Z,29.92
2022-08-05T09:32:40.147Z,29.98
2022-08-05T09:34:21.054Z,30.04
2022-08-05T09:36:59.428Z,30.11
2022-08-05T09:39:45.788Z,30.16
2022-08-05T09:42:28.107Z,30.23
2022-08-05T09:46:05.132Z,30.29
2022-08-05T09:48:02.670Z,30.44
2022-08-05T09:50:44.680Z,30.55
2022-08-05T09:53:26.117Z,30.61
2022-08-05T09:56:13.099Z,30.66
2022-08-05T09:58:59.328Z,30.72
2022-08-05T10:01:33.673Z,30.82
2022-08-05T10:04:10.488Z,30.93
2022-08-05T10:06:49.963Z,31.02
2022-08-05T10:09:30.217Z,31.15
2022-08-05T10:12:33.254Z,31.29
2022-08-05T10:15:20.018Z,31.37
2022-08-05T10:18:09.400Z,31.45
2022-08-05T10:20:47.706Z,31.41
2022-08-05T10:23:55.465Z,31.29
2022-08-05T10:26:15.502Z,31.33
2022-08-05T10:28:49.437Z,31.45
2022-08-05T10:32:54.070Z,31.51
2022-08-05T10:34:25.585Z,31.60
2022-08-05T10:37:00.801Z,31.72
2022-08-05T10:39:59.005Z,31.84
2022-08-05T10:42:33.401Z,31.87
2022-08-05T10:45:21.284Z,31.82
2022-08-05T10:48:30.176Z,31.79
2022-08-05T10:51:04.281Z,31.88
2022-08-05T10:53:38.927Z,31.94
2022-08-05T10:56:25.125Z,31.98
2022-08-05T10:59:12.484Z,31.98
2022-08-05T11:05:19.687Z,32.12
2022-08-05T11:08:03.226Z,32.10
2022-08-05T11:10:50.420Z,32.17
2022-08-05T11:13:54.784Z,32.26
2022-08-05T11:16:47.617Z,32.26
2022-08-05T11:20:10.311Z,32.25
2022-08-05T11:22:42.290Z,32.31
2022-08-05T11:26:05.068Z,32.41
2022-08-05T11:28:44.378Z,32.59
2022-08-05T11:31:57.235Z,32.76
2022-08-05T11:34:47.599Z,32.90
2022-08-05T11:38:26.164Z,33.00
2022-08-05T11:41:15.429Z,33.11
2022-08-05T11:44:06.534Z,33.41
2022-08-05T11:47:10.350Z,33.63
2022-08-05T11:49:38.322Z,33.89
2022-08-05T11:52:14.707Z,34.02
2022-08-05T11:54:56.260Z,34.29
2022-08-05T11:58:08.610Z,34.58
2022-08-05T12:00:32.672Z,34.83
2022-08-05T12:03:29.194Z,35.07
2022-08-05T12:06:09.760Z,35.26
2022-08-05T12:08:49.895Z,35.40
2022-08-05T12:11:28.398Z,35.58
2022-08-05T12:14:14.887Z,35.57
2022-08-05T12:16:50.368Z,35.61
2022-08-05T12:20:26.325Z,35.71
2022-08-05T12:22:22.284Z,36.07
2022-08-05T12:24:58.423Z,36.33
2022-08-05T12:27:33.349Z,36.44
2022-08-05T12:30:10.687Z,36.64
2022-08-05T12:32:51.161Z,36.99
2022-08-05T12:35:37.234Z,37.14
2022-08-05T12:38:13.383Z,37.30
2022-08-05T12:40:47.750Z,37.41
2022-08-05T12:43:22.965Z,37.58
2022-08-05T12:45:58.554Z,37.85
2022-08-05T12:48:41.911Z,37.94
2022-08-05T12:52:09.989Z,38.03
2022-08-05T12:54:16.945Z,38.35
2022-08-05T12:56:57.274Z,38.56
2022-08-05T13:00:09.048Z,38.57
2022-08-05T13:02:30.671Z,38.69
2022-08-05T13:05:07.206Z,38.80
2022-08-05T13:08:00.645Z,38.93
2022-08-05T13:10:35.126Z,39.03
2022-08-05T13:14:06.266Z,39.00
2022-08-05T13:16:19.899Z,39.08
2022-08-05T13:18:58.787Z,39.30
2022-08-05T13:21:38.132Z,39.54
2022-08-05T13:24:44.989Z,39.63
2022-08-05T13:27:23.023Z,39.75
2022-08-05T13:30:34.658Z,39.79
2022-08-05T13:33:03.099Z,39.93
2022-08-05T13:35:47.210Z,40.10
2022-08-05T13:38:31.076Z,40.00
2022-08-05T13:41:08.763Z,40.07
2022-08-05T13:43:45.723Z,40.07
2022-08-05T13:46:50.866Z,40.34
2022-08-05T13:49:19.898Z,40.28
2022-08-05T13:51:54.067Z,40.48
2022-08-05T13:54:26.535Z,40.73
2022-08-05T13:56:58.766Z,40.88
2022-08-05T13:59:31.909Z,41.16
2022-08-05T14:02:05.289Z,41.42
2022-08-05T14:05:00.636Z,41.49
2022-08-05T14:07:59.774Z,41.20
2022-08-05T14:10:28.640Z,41.38
2022-08-05T14:13:06.151Z,41.48
2022-08-05T14:16:07.266Z,41.53
2022-08-05T14:18:34.508Z,41.72
2022-08-05T14:22:07.883Z,41.74
2022-08-05T14:24:09.850Z,41.76
2022-08-05T14:26:56.607Z,41.72
2022-08-05T14:29:34.475Z,41.76
2022-08-05T14:32:12.291Z,41.46
2022-08-05T14:34:47.223Z,41.29
2022-08-05T14:37:19.507Z,41.42
2022-08-05T14:39:59.021Z,41.50
2022-08-05T14:42:32.275Z,41.72
2022-08-05T14:45:08.977Z,42.04
2022-08-05T14:48:02.912Z,42.27
2022-08-05T14:50:39.760Z,42.42
2022-08-05T14:53:14.358Z,42.51
2022-08-05T14:55:52.096Z,42.56
2022-08-05T14:58:26.563Z,42.58
2022-08-05T15:01:03.139Z,42.64
2022-08-05T15:03:39.045Z,42.74
2022-08-05T15:06:15.686Z,42.82
2022-08-05T15:08:59.046Z,42.88
2022-08-05T15:11:53.254Z,42.98
2022-08-05T15:14:35.601Z,43.10
2022-08-05T15:17:44.405Z,43.01
2022-08-05T15:20:18.453Z,43.01
2022-08-05T15:22:54.992Z,43.04
2022-08-05T15:25:41.010Z,42.99
2022-08-05T15:28:23.047Z,42.80
2022-08-05T15:31:03.613Z,42.73
2022-08-05T15:34:19.115Z,42.86
2022-08-05T15:36:30.879Z,42.69
2022-08-05T15:40:59.157Z,42.43
2022-08-05T15:41:59.102Z,42.49
2022-08-05T15:44:32.403Z,42.61
2022-08-05T15:47:05.614Z,42.74
2022-08-05T15:49:47.904Z,42.84
2022-08-05T15:52:52.332Z,42.89
2022-08-05T15:55:24.912Z,42.94
2022-08-05T15:58:16.452Z,42.96
2022-08-05T16:01:12.018Z,42.89
2022-08-05T16:03:44.476Z,42.69
2022-08-05T16:06:23.463Z,42.62
2022-08-05T16:08:57.304Z,42.74
2022-08-05T16:11:43.021Z,42.81
2022-08-05T16:14:17.317Z,42.80
2022-08-05T16:16:50.459Z,42.55
2022-08-05T16:20:02.746Z,42.49
2022-08-05T16:22:17.989Z,42.50
2022-08-05T16:24:59.971Z,42.48
2022-08-05T16:27:59.812Z,42.24
2022-08-05T16:30:29.146Z,41.95
2022-08-05T16:33:02.796Z,41.95
2022-08-05T16:35:42.028Z,41.85
2022-08-05T16:38:25.173Z,41.62
2022-08-05T16:41:02.627Z,41.11
2022-08-05T16:43:56.333Z,40.39
2022-08-05T16:46:29.293Z,39.84
2022-08-05T16:49:03.019Z,39.23
2022-08-05T16:51:50.369Z,38.59
2022-08-05T16:54:30.315Z,38.00
2022-08-05T16:57:14.901Z,37.52
2022-08-05T17:00:01.596Z,37.00
2022-08-05T17:02:38.437Z,36.57
2022-08-05T17:05:11.935Z,36.25
2022-08-05T17:07:53.001Z,35.83
2022-08-05T17:10:30.554Z,35.47
2022-08-05T17:13:03.860Z,35.15
2022-08-05T17:15:48.949Z,34.84
2022-08-05T17:18:26.199Z,34.50
2022-08-05T17:20:59.909Z,34.23
2022-08-05T17:24:04.877Z,34.01
2022-08-05T17:26:25.690Z,33.70
2022-08-05T17:28:58.187Z,33.43
2022-08-05T17:31:41.581Z,33.17
2022-08-05T17:34:32.029Z,32.96
2022-08-05T17:37:27.336Z,32.72
2022-08-05T17:39:59.806Z,32.44
2022-08-05T17:42:36.415Z,32.21
2022-08-05T17:45:20.910Z,32.02
2022-08-05T17:47:56.030Z,31.81
2022-08-05T17:50:30.973Z,31.58
2022-08-05T17:53:08.691Z,31.38
2022-08-05T17:55:41.934Z,31.19
2022-08-05T17:58:16.451Z,31.01
2022-08-05T18:00:55.070Z,30.86
2022-08-05T18:03:55.814Z,30.68
2022-08-05T18:06:29.505Z,30.50
2022-08-05T18:09:04.776Z,30.34
2022-08-05T18:11:42.242Z,30.13
2022-08-05T18:14:20.620Z,29.97
2022-08-05T18:16:53.604Z,29.81
2022-08-05T18:19:25.980Z,29.67
2022-08-05T18:22:08.864Z,29.50
2022-08-05T18:24:43.891Z,29.32
2022-08-05T18:27:18.872Z,29.16
2022-08-05T18:29:54.786Z,29.02
2022-08-05T18:32:28.425Z,28.87
2022-08-05T18:35:03.122Z,28.70
2022-08-05T18:37:40.352Z,28.53
2022-08-05T18:41:52.671Z,28.38
2022-08-05T18:43:09.039Z,28.25
2022-08-05T18:45:49.738Z,28.10
2022-08-05T18:48:31.585Z,27.98
2022-08-05T18:52:02.897Z,27.88
2022-08-05T18:54:15.801Z,27.72
2022-08-05T18:56:51.168Z,27.63
2022-08-05T18:59:44.143Z,27.53
2022-08-05T19:02:27.246Z,27.42
2022-08-05T19:06:05.575Z,27.31
2022-08-05T19:07:56.336Z,27.19
2022-08-05T19:10:32.310Z,27.09
2022-08-05T19:13:12.279Z,27.00
2022-08-05T19:15:58.740Z,26.91
2022-08-05T19:18:35.623Z,26.82
2022-08-05T19:21:13.100Z,26.72
2022-08-05T19:24:07.209Z,26.63
2022-08-05T19:26:55.009Z,26.54
2022-08-05T19:29:36.302Z,26.44
2022-08-05T19:32:11.718Z,26.35
2022-08-05T19:34:55.242Z,26.27
2022-08-05T19:37:35.060Z,26.17
2022-08-05T19:40:24.292Z,26.08
2022-08-05T19:43:05.409Z,26.00
2022-08-05T19:45:39.313Z,25.93
2022-08-05T19:48:27.560Z,25.84
2022-08-05T19:51:01.426Z,25.76
2022-08-05T19:54:04.707Z,25.70
2022-08-05T19:56:32.503Z,25.62
2022-08-05T19:59:53.746Z,25.54
2022-08-05T20:02:03.841Z,25.45
2022-08-05T20:04:36.938Z,25.36
2022-08-05T20:07:13.430Z,25.29
2022-08-05T20:09:54.503Z,25.22
2022-08-05T20:12:29.741Z,25.17
2022-08-05T20:15:05.802Z,25.13
2022-08-05T20:17:41.753Z,25.09
2022-08-05T20:20:16.266Z,25.03
2022-08-05T20:22:48.719Z,24.99
2022-08-05T20:25:25.992Z,24.94
2022-08-05T20:28:13.754Z,24.86
2022-08-05T20:30:49.484Z,24.80
2022-08-05T20:33:21.940Z,24.74
2022-08-05T20:35:57.557Z,24.68
2022-08-05T20:38:35.498Z,24.63
2022-08-05T20:41:08.999Z,24.57
2022-08-05T20:43:58.950Z,24.51
2022-08-05T20:46:35.851Z,24.46
2022-08-05T20:49:09.765Z,24.40
2022-08-05T20:51:44.510Z,24.37
2022-08-05T20:54:43.201Z,24.32
2022-08-05T20:57:42.661Z,24.26
2022-08-05T21:00:40.376Z,24.19
2022-08-05T21:03:11.432Z,24.14
2022-08-05T21:05:53.784Z,24.08
2022-08-05T21:08:41.785Z,24.03
2022-08-05T21:12:10.797Z,23.97
2022-08-05T21:14:08.443Z,23.89
2022-08-05T21:16:47.588Z,23.84
2022-08-05T21:19:20.252Z,23.80
2022-08-05T21:21:56.820Z,23.77
2022-08-05T21:24:29.698Z,23.75
2022-08-05T21:27:03.531Z,23.71
2022-08-05T21:29:40.679Z,23.68
2022-08-05T21:32:17.173Z,23.64
2022-08-05T21:34:56.007Z,23.62
2022-08-05T21:37:42.566Z,23.59
2022-08-05T21:40:20.560Z,23.56
2022-08-05T21:42:53.818Z,23.51
2022-08-05T21:45:51.469Z,23.47
2022-08-05T21:48:18.881Z,23.44
2022-08-05T21:50:54.379Z,23.41
2022-08-05T21:53:27.875Z,23.39
2022-08-05T21:56:09.925Z,23.38
2022-08-05T21:58:57.568Z,23.32
2022-08-05T22:01:35.493Z,23.29
2022-08-05T22:04:13.514Z,23.25
2022-08-05T22:06:50.255Z,23.21
2022-08-05T22:09:23.686Z,23.18
2022-08-05T22:12:18.105Z,23.13
2022-08-05T22:14:59.499Z,23.07
2022-08-05T22:17:32.489Z,23.02
2022-08-05T22:20:14.933Z,22.98
2022-08-05T22:23:15.887Z,22.92
2022-08-05T22:26:10.453Z,22.87
2022-08-05T22:28:44.379Z,22.82
2022-08-05T22:31:18.461Z,22.77
2022-08-05T22:33:58.342Z,22.75
2022-08-05T22:36:35.000Z,22.72
2022-08-05T22:39:12.822Z,22.69
2022-08-05T22:42:10.230Z,22.65
2022-08-05T22:44:38.442Z,22.62
2022-08-05T22:47:11.181Z,22.58
2022-08-05T22:50:19.663Z,22.55
2022-08-05T22:52:41.190Z,22.50
2022-08-05T22:55:19.512Z,22.46
2022-08-05T22:57:53.461Z,22.42
2022-08-05T23:00:26.653Z,22.38
2022-08-05T23:03:01.216Z,22.35
2022-08-05T23:05:36.769Z,22.32
2022-08-05T23:08:13.321Z,22.30
2022-08-05T23:10:46.732Z,22.27
2022-08-05T23:13:19.675Z,22.23
2022-08-05T23:15:53.672Z,22.20
2022-08-05T23:18:31.289Z,22.17
2022-08-05T23:21:05.825Z,22.11
2022-08-05T23:23:42.477Z,22.08
2022-08-05T23:26:15.610Z,22.05
2022-08-05T23:28:53.797Z,22.03
2022-08-05T23:31:26.769Z,22.03
2022-08-05T23:34:05.217Z,22.01
2022-08-05T23:36:41.513Z,21.98
2022-08-05T23:39:31.988Z,21.95
2022-08-05T23:42:14.305Z,21.92
2022-08-05T23:44:54.450Z,21.89
2022-08-05T23:47:28.436Z,21.87
2022-08-05T23:50:09.760Z,21.86
2022-08-05T23:52:49.425Z,21.85
2022-08-05T23:55:24.622Z,21.84
2022-08-05T23:58:03.950Z,21.81
